createdAt,value
2018-06-19T00:01:25.972Z,99.90
2018-06-19T00:03:54.081Z,99.90
2018-06-19T00:06:22.121Z,99.90
2018-06-19T00:08:50.213Z,99.90
2018-06-19T00:11:18.274Z,99.90
2018-06-19T00:13:46.352Z,99.90
2018-06-19T00:16:14.386Z,99.90
2018-06-19T00:18:43.657Z,99.90
2018-06-19T00:21:13.266Z,99.90
2018-06-19T00:23:41.289Z,99.90
2018-06-19T00:26:09.359Z,99.90
2018-06-19T00:28:38.578Z,99.90
2018-06-19T00:31:06.872Z,99.90
2018-06-19T00:33:34.864Z,99.90
2018-06-19T00:36:03.129Z,99.90
2018-06-19T00:38:31.162Z,99.90
2018-06-19T00:40:59.571Z,99.90
2018-06-19T00:43:27.612Z,99.90
2018-06-19T00:45:55.681Z,99.90
2018-06-19T00:48:23.779Z,99.90
2018-06-19T00:50:51.825Z,99.90
2018-06-19T00:53:19.881Z,99.90
2018-06-19T00:55:47.944Z,99.90
2018-06-19T01:00:43.789Z,99.90
2018-06-19T01:03:11.785Z,99.90
2018-06-19T01:05:39.921Z,99.90
2018-06-19T01:08:08.039Z,99.90
2018-06-19T01:10:36.082Z,99.90
2018-06-19T01:13:04.133Z,99.90
2018-06-19T01:15:32.172Z,99.90
2018-06-19T01:18:00.221Z,99.90
2018-06-19T01:20:28.260Z,99.90
2018-06-19T01:22:56.286Z,99.90
2018-06-19T01:25:24.475Z,99.90
2018-06-19T01:27:52.513Z,99.90
2018-06-19T01:30:20.560Z,99.90
2018-06-19T01:32:48.645Z,99.90
2018-06-19T01:35:16.693Z,99.90
2018-06-19T01:37:44.717Z,99.90
2018-06-19T01:40:12.769Z,99.90
2018-06-19T01:42:40.786Z,99.90
2018-06-19T01:45:08.837Z,99.90
2018-06-19T01:47:36.873Z,99.90
2018-06-19T01:50:04.957Z,99.90
2018-06-19T01:52:32.988Z,99.90
2018-06-19T01:55:01.103Z,99.90
2018-06-19T01:57:29.162Z,99.90
2018-06-19T01:59:57.276Z,99.90
2018-06-19T02:02:25.301Z,99.90
2018-06-19T02:04:53.386Z,99.90
2018-06-19T02:07:21.453Z,99.90
2018-06-19T02:09:49.485Z,99.90
2018-06-19T02:12:17.575Z,99.90
2018-06-19T02:14:45.614Z,99.90
2018-06-19T02:17:13.745Z,99.90
2018-06-19T02:19:41.782Z,99.90
2018-06-19T02:22:09.888Z,99.90
2018-06-19T02:24:37.941Z,99.90
2018-06-19T02:27:05.978Z,99.90
2018-06-19T02:29:34.066Z,99.90
2018-06-19T02:32:02.117Z,99.90
2018-06-19T02:34:30.177Z,99.90
2018-06-19T02:36:58.222Z,99.90
2018-06-19T02:39:26.248Z,99.90
2018-06-19T02:41:54.290Z,99.90
2018-06-19T02:44:22.346Z,99.90
2018-06-19T02:46:50.386Z,99.90
2018-06-19T02:51:46.208Z,99.90
2018-06-19T02:54:14.263Z,99.90
2018-06-19T02:56:42.430Z,99.90
2018-06-19T02:59:10.440Z,99.90
2018-06-19T03:01:38.523Z,99.90
2018-06-19T03:04:06.608Z,99.90
2018-06-19T03:06:34.642Z,99.90
2018-06-19T03:09:02.733Z,99.90
2018-06-19T03:11:30.784Z,99.90
2018-06-19T03:13:58.802Z,99.90
2018-06-19T03:16:28.097Z,99.90
2018-06-19T03:18:56.169Z,99.90
2018-06-19T03:21:24.193Z,99.90
2018-06-19T03:23:52.229Z,99.90
2018-06-19T03:26:20.311Z,99.90
2018-06-19T03:28:48.375Z,99.90
2018-06-19T03:31:16.458Z,99.90
2018-06-19T03:33:44.504Z,99.90
2018-06-19T03:36:12.564Z,99.90
2018-06-19T03:38:40.635Z,99.90
2018-06-19T03:41:08.788Z,99.90
2018-06-19T03:43:36.816Z,99.90
2018-06-19T03:46:04.896Z,99.90
2018-06-19T03:48:32.965Z,99.90
2018-06-19T03:51:01.036Z,99.90
2018-06-19T03:53:29.538Z,99.90
2018-06-19T03:55:57.591Z,99.90
2018-06-19T03:58:25.643Z,99.90
2018-06-19T04:00:53.694Z,99.90
2018-06-19T04:03:21.782Z,99.90
2018-06-19T04:05:49.959Z,99.90
2018-06-19T04:08:18.022Z,99.90
2018-06-19T04:10:46.067Z,99.90
2018-06-19T04:13:14.526Z,99.90
2018-06-19T04:15:43.632Z,99.90
2018-06-19T04:18:11.669Z,99.90
2018-06-19T04:20:40.551Z,99.90
2018-06-19T04:23:08.895Z,99.90
2018-06-19T04:25:38.133Z,99.90
2018-06-19T04:28:06.168Z,99.90
2018-06-19T04:30:34.382Z,99.90
2018-06-19T04:33:02.435Z,99.90
2018-06-19T04:35:30.518Z,99.90
2018-06-19T04:37:58.554Z,99.90
2018-06-19T04:40:26.649Z,99.90
2018-06-19T04:42:54.680Z,99.90
2018-06-19T04:45:22.709Z,99.90
2018-06-19T04:47:50.759Z,99.90
2018-06-19T04:50:18.791Z,99.90
2018-06-19T04:52:46.905Z,99.90
2018-06-19T04:55:14.982Z,99.90
2018-06-19T04:57:43.039Z,99.90
2018-06-19T05:00:11.076Z,99.90
2018-06-19T05:02:39.123Z,99.90
2018-06-19T05:05:07.130Z,99.90
2018-06-19T05:07:35.272Z,99.90
2018-06-19T05:10:03.273Z,99.90
2018-06-19T05:12:31.340Z,99.90
2018-06-19T05:14:59.471Z,99.90
2018-06-19T05:17:27.522Z,99.90
2018-06-19T05:19:55.572Z,99.90
2018-06-19T05:22:23.633Z,99.90
2018-06-19T05:24:51.661Z,99.90
2018-06-19T05:27:19.717Z,99.90
2018-06-19T05:29:47.794Z,99.90
2018-06-19T05:32:15.875Z,99.90
2018-06-19T05:34:43.922Z,99.90
2018-06-19T05:37:12.000Z,99.90
2018-06-19T05:39:40.035Z,99.90
2018-06-19T05:42:08.154Z,99.90
2018-06-19T05:44:36.255Z,99.90
2018-06-19T05:47:04.299Z,99.90
2018-06-19T05:49:32.368Z,99.90
2018-06-19T05:52:00.467Z,99.90
2018-06-19T05:54:28.497Z,99.90
2018-06-19T05:56:56.530Z,99.90
2018-06-19T05:59:24.586Z,99.90
2018-06-19T06:01:53.307Z,99.90
2018-06-19T06:04:21.450Z,99.90
2018-06-19T06:06:49.464Z,99.90
2018-06-19T06:09:17.517Z,99.90
2018-06-19T06:11:45.545Z,99.90
2018-06-19T06:14:13.584Z,99.90
2018-06-19T06:16:41.726Z,99.90
2018-06-19T06:19:09.686Z,99.90
2018-06-19T06:21:37.702Z,99.90
2018-06-19T06:24:05.762Z,99.90
2018-06-19T06:26:33.788Z,99.90
2018-06-19T06:29:01.841Z,99.90
2018-06-19T06:31:29.858Z,99.90
2018-06-19T06:33:57.985Z,99.90
2018-06-19T06:36:26.019Z,99.90
2018-06-19T06:38:54.066Z,99.90
2018-06-19T06:41:22.197Z,99.90
2018-06-19T06:43:50.265Z,99.90
2018-06-19T06:46:18.293Z,99.90
2018-06-19T06:51:14.121Z,99.90
2018-06-19T06:53:42.161Z,99.90
2018-06-19T06:56:10.205Z,99.90
2018-06-19T07:01:06.250Z,99.90
2018-06-19T07:03:34.368Z,99.90
2018-06-19T07:06:02.390Z,99.90
2018-06-19T07:08:30.497Z,99.90
2018-06-19T07:10:58.566Z,99.90
2018-06-19T07:13:26.673Z,99.90
2018-06-19T07:15:54.667Z,99.90
2018-06-19T07:18:22.765Z,99.90
2018-06-19T07:20:50.802Z,99.90
2018-06-19T07:23:18.838Z,99.90
2018-06-19T07:25:46.904Z,99.90
2018-06-19T07:28:14.894Z,99.90
2018-06-19T07:30:43.132Z,99.90
2018-06-19T07:33:11.082Z,99.90
2018-06-19T07:35:39.130Z,99.90
2018-06-19T07:38:07.196Z,99.90
2018-06-19T07:40:35.198Z,99.90
2018-06-19T07:43:04.537Z,99.90
2018-06-19T07:45:33.245Z,99.90
2018-06-19T07:48:01.618Z,99.90
2018-06-19T07:50:30.297Z,99.90
2018-06-19T07:52:58.347Z,99.90
2018-06-19T07:55:26.574Z,99.90
2018-06-19T07:57:54.645Z,99.90
2018-06-19T08:00:23.314Z,99.90
2018-06-19T08:02:51.322Z,99.90
2018-06-19T08:05:19.427Z,99.90
2018-06-19T08:07:47.430Z,99.90
2018-06-19T08:10:15.486Z,99.90
2018-06-19T08:12:43.508Z,99.90
2018-06-19T08:15:11.605Z,99.90
2018-06-19T08:17:39.638Z,99.90
2018-06-19T08:20:07.913Z,99.90
2018-06-19T08:22:35.959Z,99.90
2018-06-19T08:25:03.996Z,99.90
2018-06-19T08:27:32.018Z,99.90
2018-06-19T08:30:00.059Z,99.90
2018-06-19T08:32:28.067Z,99.90
2018-06-19T08:34:56.111Z,99.90
2018-06-19T08:37:24.690Z,99.90
2018-06-19T08:39:52.953Z,99.90
2018-06-19T08:42:20.993Z,99.90
2018-06-19T08:44:49.029Z,99.90
2018-06-19T08:47:17.079Z,99.90
2018-06-19T08:49:45.157Z,99.90
2018-06-19T08:52:13.166Z,99.90
2018-06-19T08:54:41.531Z,99.90
2018-06-19T08:57:09.592Z,99.90
2018-06-19T08:59:37.634Z,99.90
2018-06-19T09:02:05.704Z,99.90
2018-06-19T09:04:33.792Z,99.90
2018-06-19T09:07:01.835Z,99.90
2018-06-19T09:09:29.878Z,99.90
2018-06-19T09:11:57.922Z,99.90
2018-06-19T09:14:25.941Z,99.90
2018-06-19T09:16:53.986Z,99.90
2018-06-19T09:19:22.016Z,99.90
2018-06-19T09:24:17.911Z,99.90
2018-06-19T09:26:45.976Z,99.90
2018-06-19T09:29:13.997Z,99.90
2018-06-19T09:31:42.106Z,99.90
2018-06-19T09:34:10.072Z,99.90
2018-06-19T09:36:38.100Z,99.90
2018-06-19T09:39:06.933Z,99.90
2018-06-19T09:41:34.954Z,99.90
2018-06-19T09:44:03.221Z,99.90
2018-06-19T09:46:31.265Z,99.90
2018-06-19T09:48:59.374Z,99.90
2018-06-19T09:51:27.427Z,99.90
2018-06-19T09:53:55.488Z,99.90
2018-06-19T09:56:23.536Z,99.90
2018-06-19T09:58:51.633Z,99.90
2018-06-19T10:01:19.703Z,99.90
2018-06-19T10:03:47.717Z,99.90
2018-06-19T10:06:15.806Z,99.90
2018-06-19T10:08:43.810Z,99.90
2018-06-19T10:11:11.894Z,99.80
2018-06-19T10:13:39.958Z,99.60
2018-06-19T10:16:08.037Z,99.20
2018-06-19T10:18:36.081Z,98.80
2018-06-19T10:21:04.174Z,98.00
2018-06-19T10:23:32.201Z,97.50
2018-06-19T10:26:00.370Z,97.60
2018-06-19T10:28:28.400Z,98.00
2018-06-19T10:30:56.465Z,98.40
2018-06-19T10:33:24.463Z,98.10
2018-06-19T10:35:52.709Z,98.60
2018-06-19T10:38:20.782Z,98.00
2018-06-19T10:40:48.873Z,98.20
2018-06-19T10:43:16.909Z,98.00
2018-06-19T10:45:44.995Z,98.20
2018-06-19T10:48:13.192Z,98.90
2018-06-19T10:50:41.257Z,98.50
2018-06-19T10:53:09.302Z,97.60
2018-06-19T10:55:37.352Z,98.10
2018-06-19T10:58:05.462Z,98.00
2018-06-19T11:00:33.494Z,98.20
2018-06-19T11:03:01.525Z,98.10
2018-06-19T11:05:29.579Z,98.40
2018-06-19T11:07:57.704Z,98.80
2018-06-19T11:10:25.721Z,98.30
2018-06-19T11:12:53.782Z,97.60
2018-06-19T11:15:21.829Z,96.50
2018-06-19T11:17:49.852Z,96.10
2018-06-19T11:20:17.906Z,94.60
2018-06-19T11:22:45.981Z,93.80
2018-06-19T11:25:14.020Z,93.80
2018-06-19T11:27:42.127Z,93.70
2018-06-19T11:30:10.141Z,94.30
2018-06-19T11:32:38.196Z,94.60
2018-06-19T11:35:06.286Z,94.50
2018-06-19T11:37:34.329Z,94.90
2018-06-19T11:40:02.361Z,94.70
2018-06-19T11:42:30.454Z,94.70
2018-06-19T11:44:58.562Z,94.30
2018-06-19T11:47:26.612Z,95.30
2018-06-19T11:49:54.668Z,95.60
2018-06-19T11:52:22.705Z,95.70
2018-06-19T11:54:50.820Z,96.00
2018-06-19T11:57:18.921Z,96.20
2018-06-19T11:59:46.952Z,97.00
2018-06-19T12:02:15.044Z,97.20
2018-06-19T12:04:43.238Z,97.00
2018-06-19T12:07:11.282Z,97.10
2018-06-19T12:09:39.337Z,96.40
2018-06-19T12:12:07.386Z,96.10
2018-06-19T12:14:35.429Z,95.20
2018-06-19T12:17:03.421Z,94.70
2018-06-19T12:19:31.449Z,93.70
2018-06-19T12:21:59.509Z,93.00
2018-06-19T12:24:27.522Z,91.60
2018-06-19T12:26:55.985Z,90.80
2018-06-19T12:29:24.045Z,87.60
2018-06-19T12:31:52.071Z,86.40
2018-06-19T12:34:20.181Z,86.60
2018-06-19T12:36:48.202Z,88.60
2018-06-19T12:39:16.267Z,88.20
2018-06-19T12:41:46.644Z,88.80
2018-06-19T12:44:14.738Z,86.60
2018-06-19T12:46:43.319Z,84.00
2018-06-19T12:49:11.615Z,82.60
2018-06-19T12:51:46.153Z,81.40
2018-06-19T12:54:16.373Z,83.40
2018-06-19T12:56:44.517Z,83.70
2018-06-19T12:59:12.889Z,86.60
2018-06-19T13:01:40.914Z,88.30
2018-06-19T13:04:14.704Z,89.70
2018-06-19T13:09:10.514Z,89.40
2018-06-19T13:11:38.573Z,87.30
2018-06-19T13:14:12.404Z,85.90
2018-06-19T13:16:46.186Z,85.60
2018-06-19T13:19:23.884Z,82.40
2018-06-19T13:21:51.898Z,77.70
2018-06-19T13:24:19.956Z,71.80
2018-06-19T13:26:47.994Z,64.10
2018-06-19T13:29:30.837Z,59.80
2018-06-19T13:31:59.054Z,58.70
2018-06-19T13:34:27.157Z,60.30
2018-06-19T13:36:55.229Z,58.30
2018-06-19T13:39:23.290Z,59.10
2018-06-19T13:41:57.095Z,61.50
2018-06-19T13:45:00.221Z,65.10
2018-06-19T13:47:28.256Z,67.80
2018-06-19T13:49:56.428Z,72.00
2018-06-19T13:52:24.440Z,73.80
2018-06-19T13:54:52.787Z,76.30
2018-06-19T13:57:30.921Z,78.70
2018-06-19T14:00:00.178Z,79.80
2018-06-19T14:02:28.229Z,82.40
2018-06-19T14:04:56.668Z,83.70
2018-06-19T14:07:25.666Z,85.60
2018-06-19T14:09:59.530Z,87.20
2018-06-19T14:13:13.834Z,89.20
2018-06-19T14:15:47.652Z,90.00
2018-06-19T14:18:16.524Z,90.90
2018-06-19T14:20:44.578Z,91.10
2018-06-19T14:23:13.082Z,92.10
2018-06-19T14:25:41.133Z,92.90
2018-06-19T14:28:09.185Z,93.30
2018-06-19T14:30:37.209Z,94.20
2018-06-19T14:33:05.300Z,94.40
2018-06-19T14:35:33.283Z,95.10
2018-06-19T14:38:01.310Z,95.10
2018-06-19T14:40:29.356Z,95.70
2018-06-19T14:42:57.370Z,96.40
2018-06-19T14:45:25.979Z,96.60
2018-06-19T14:47:54.013Z,97.40
2018-06-19T14:50:22.064Z,98.10
2018-06-19T14:52:51.005Z,99.30
2018-06-19T14:55:19.958Z,99.90
2018-06-19T14:57:48.188Z,99.90
2018-06-19T15:00:16.233Z,99.90
2018-06-19T15:02:44.246Z,99.90
2018-06-19T15:05:12.303Z,99.90
2018-06-19T15:07:46.085Z,99.90
2018-06-19T15:10:14.396Z,99.90
2018-06-19T15:12:42.461Z,99.90
2018-06-19T15:15:10.539Z,99.90
2018-06-19T15:17:38.589Z,99.90
2018-06-19T15:22:34.478Z,99.90
2018-06-19T15:25:02.493Z,99.90
2018-06-19T15:27:30.585Z,99.90
2018-06-19T15:29:58.635Z,99.90
2018-06-19T15:32:26.738Z,99.90
2018-06-19T15:34:54.798Z,99.90
2018-06-19T15:37:22.847Z,99.90
2018-06-19T15:39:50.953Z,99.90
2018-06-19T15:42:18.997Z,99.90
2018-06-19T15:44:47.050Z,99.90
2018-06-19T15:47:15.099Z,99.90
2018-06-19T15:49:43.146Z,99.90
2018-06-19T15:52:11.192Z,99.90
2018-06-19T15:54:39.237Z,99.90
2018-06-19T15:57:07.278Z,99.90
2018-06-19T15:59:35.382Z,99.90
2018-06-19T16:02:03.414Z,99.90
2018-06-19T16:04:31.457Z,99.90
2018-06-19T16:06:59.536Z,99.90
2018-06-19T16:09:27.576Z,99.90
2018-06-19T16:11:56.093Z,99.90
2018-06-19T16:14:24.176Z,99.90
2018-06-19T16:16:52.202Z,99.90
2018-06-19T16:19:20.286Z,99.90
2018-06-19T16:21:48.343Z,99.90
2018-06-19T16:24:16.465Z,99.90
2018-06-19T16:26:44.498Z,99.90
2018-06-19T16:29:13.177Z,99.90
2018-06-19T16:31:41.364Z,99.90
2018-06-19T16:34:09.426Z,99.90
2018-06-19T16:36:37.573Z,99.90
2018-06-19T16:39:07.058Z,99.90
2018-06-19T16:41:35.126Z,99.90
2018-06-19T16:44:03.199Z,99.90
2018-06-19T16:46:31.331Z,99.90
2018-06-19T16:49:00.293Z,99.90
2018-06-19T16:51:28.451Z,99.90
2018-06-19T16:53:56.549Z,99.90
2018-06-19T16:56:24.585Z,99.90
2018-06-19T16:58:52.629Z,99.90
2018-06-19T17:01:20.693Z,99.90
2018-06-19T17:03:48.824Z,99.90
2018-06-19T17:06:16.875Z,99.90
2018-06-19T17:08:44.930Z,99.90
2018-06-19T17:11:12.960Z,99.90
2018-06-19T17:13:41.061Z,99.90
2018-06-19T17:16:09.062Z,99.90
2018-06-19T17:18:37.115Z,99.90
2018-06-19T17:21:05.307Z,99.90
2018-06-19T17:23:33.329Z,99.90
2018-06-19T17:28:29.216Z,99.90
2018-06-19T17:30:57.285Z,99.90
2018-06-19T17:33:25.315Z,99.90
2018-06-19T17:35:53.366Z,99.90
2018-06-19T17:38:21.430Z,99.90
2018-06-19T17:40:49.584Z,99.90
2018-06-19T17:43:17.525Z,99.90
2018-06-19T17:45:45.625Z,99.90
2018-06-19T17:48:13.696Z,99.90
2018-06-19T17:50:41.767Z,99.90
2018-06-19T17:53:09.865Z,98.40
2018-06-19T17:55:38.025Z,96.30
2018-06-19T17:58:06.168Z,94.50
2018-06-19T18:00:37.261Z,94.50
2018-06-19T18:03:05.458Z,94.60
2018-06-19T18:05:33.605Z,94.80
2018-06-19T18:08:01.617Z,94.40
2018-06-19T18:10:29.694Z,93.90
2018-06-19T18:13:00.244Z,93.10
2018-06-19T18:15:29.191Z,92.80
2018-06-19T18:17:57.244Z,92.80
2018-06-19T18:20:25.338Z,92.50
2018-06-19T18:22:53.373Z,92.40
2018-06-19T18:25:21.438Z,92.50
2018-06-19T18:27:49.471Z,92.70
2018-06-19T18:30:17.516Z,92.70
2018-06-19T18:32:45.786Z,93.00
2018-06-19T18:35:13.822Z,93.80
2018-06-19T18:37:41.853Z,95.50
2018-06-19T18:40:09.970Z,95.90
2018-06-19T18:42:38.022Z,96.50
2018-06-19T18:45:06.113Z,96.70
2018-06-19T18:47:34.191Z,97.60
2018-06-19T18:50:02.324Z,98.50
2018-06-19T18:52:30.413Z,99.40
2018-06-19T18:54:58.535Z,99.90
2018-06-19T18:57:26.609Z,99.90
2018-06-19T18:59:54.761Z,99.90
2018-06-19T19:02:23.135Z,99.90
2018-06-19T19:04:51.174Z,99.90
2018-06-19T19:07:19.226Z,99.90
2018-06-19T19:12:20.713Z,99.90
2018-06-19T19:14:54.324Z,99.90
2018-06-19T19:17:27.875Z,99.90
2018-06-19T19:19:56.053Z,99.90
2018-06-19T19:22:24.118Z,99.90
2018-06-19T19:24:52.172Z,99.90
2018-06-19T19:27:25.886Z,99.90
2018-06-19T19:29:53.963Z,99.90
2018-06-19T19:32:22.014Z,99.90
2018-06-19T19:34:50.083Z,99.90
2018-06-19T19:37:24.075Z,99.90
2018-06-19T19:39:52.137Z,99.90
2018-06-19T19:42:20.276Z,99.90
2018-06-19T19:44:48.290Z,99.90
2018-06-19T19:47:21.809Z,99.90
2018-06-19T19:49:49.847Z,99.90
2018-06-19T19:52:17.885Z,99.90
2018-06-19T19:54:45.915Z,99.90
2018-06-19T19:57:19.617Z,99.90
2018-06-19T19:59:47.761Z,99.90
2018-06-19T20:02:15.757Z,99.90
2018-06-19T20:04:44.685Z,99.90
2018-06-19T20:07:12.774Z,99.90
2018-06-19T20:09:40.846Z,99.90
2018-06-19T20:12:08.921Z,99.90
2018-06-19T20:14:36.934Z,99.90
2018-06-19T20:17:05.063Z,99.90
2018-06-19T20:19:33.135Z,99.90
2018-06-19T20:22:01.719Z,99.90
2018-06-19T20:24:29.745Z,99.90
2018-06-19T20:26:57.825Z,99.90
2018-06-19T20:29:25.922Z,99.90
2018-06-19T20:31:53.987Z,99.90
2018-06-19T20:34:22.017Z,99.90
2018-06-19T20:36:50.061Z,99.90
2018-06-19T20:39:18.112Z,99.90
2018-06-19T20:41:46.164Z,99.90
2018-06-19T20:44:15.201Z,99.90
2018-06-19T20:46:43.242Z,99.90
2018-06-19T20:49:11.270Z,99.90
2018-06-19T20:51:39.373Z,99.90
2018-06-19T20:54:07.454Z,99.90
2018-06-19T20:56:35.499Z,99.90
2018-06-19T20:59:03.551Z,99.90
2018-06-19T21:01:31.687Z,99.90
2018-06-19T21:03:59.744Z,99.90
2018-06-19T21:06:27.771Z,99.90
2018-06-19T21:08:55.829Z,99.90
2018-06-19T21:11:23.875Z,99.90
2018-06-19T21:13:51.956Z,99.90
2018-06-19T21:16:19.921Z,99.90
2018-06-19T21:18:48.101Z,99.90
2018-06-19T21:21:16.202Z,99.90
2018-06-19T21:23:44.256Z,99.90
2018-06-19T21:26:12.290Z,99.90
2018-06-19T21:28:40.357Z,99.90
2018-06-19T21:31:08.405Z,99.90
2018-06-19T21:33:36.442Z,99.90
2018-06-19T21:36:04.521Z,99.90
2018-06-19T21:38:32.526Z,99.90
2018-06-19T21:41:00.557Z,99.90
2018-06-19T21:43:28.589Z,99.90
2018-06-19T21:45:56.633Z,99.90
2018-06-19T21:48:24.665Z,99.90
2018-06-19T21:50:52.700Z,99.90
2018-06-19T21:53:20.873Z,99.90
2018-06-19T21:55:48.906Z,99.90
2018-06-19T21:58:16.941Z,99.90
2018-06-19T22:00:45.001Z,99.90
2018-06-19T22:03:13.066Z,99.90
2018-06-19T22:05:41.129Z,99.90
2018-06-19T22:08:09.182Z,99.90
2018-06-19T22:10:37.218Z,99.90
2018-06-19T22:13:05.386Z,99.90
2018-06-19T22:15:33.437Z,99.90
2018-06-19T22:18:01.481Z,99.90
2018-06-19T22:20:29.561Z,99.90
2018-06-19T22:22:57.642Z,99.90
2018-06-19T22:25:25.668Z,99.90
2018-06-19T22:27:53.701Z,99.90
2018-06-19T22:30:21.734Z,99.90
2018-06-19T22:35:17.546Z,99.90
2018-06-19T22:37:45.574Z,99.90
2018-06-19T22:40:13.646Z,99.90
2018-06-19T22:42:41.666Z,99.90
2018-06-19T22:45:09.786Z,99.90
2018-06-19T22:47:37.821Z,99.90
2018-06-19T22:50:05.946Z,99.90
2018-06-19T22:52:33.964Z,99.90
2018-06-19T22:55:02.074Z,99.90
2018-06-19T22:57:30.159Z,99.90
2018-06-19T22:59:58.237Z,99.90
2018-06-19T23:02:26.324Z,99.90
2018-06-19T23:04:54.372Z,99.90
2018-06-19T23:07:22.385Z,99.90
2018-06-19T23:09:50.510Z,99.90
2018-06-19T23:12:18.535Z,99.90
2018-06-19T23:14:46.578Z,99.90
2018-06-19T23:17:14.627Z,99.90
2018-06-19T23:19:42.678Z,99.90
2018-06-19T23:22:10.765Z,99.90
2018-06-19T23:24:38.810Z,99.90
2018-06-19T23:27:07.037Z,99.90
2018-06-19T23:29:35.192Z,99.90
2018-06-19T23:32:03.222Z,99.90
2018-06-19T23:34:31.286Z,99.90
2018-06-19T23:36:59.321Z,99.90
2018-06-19T23:39:27.381Z,99.90
2018-06-19T23:41:55.418Z,99.90
2018-06-19T23:44:23.466Z,99.90
2018-06-19T23:46:51.493Z,99.90
2018-06-19T23:49:19.569Z,99.90
2018-06-19T23:51:47.598Z,99.90
2018-06-19T23:54:15.682Z,99.90
2018-06-19T23:56:43.732Z,99.90
2018-06-19T23:59:11.850Z,99.90
